createdAt,value
2018-11-29T00:00:25.532Z,4.90
2018-11-29T00:01:25.705Z,4.87
2018-11-29T00:02:25.879Z,4.94
2018-11-29T00:03:26.055Z,4.84
2018-11-29T00:04:26.246Z,4.93
2018-11-29T00:05:26.401Z,4.84
2018-11-29T00:06:26.578Z,4.78
2018-11-29T00:07:26.747Z,4.77
2018-11-29T00:08:26.914Z,4.86
2018-11-29T00:09:27.083Z,4.89
2018-11-29T00:10:27.255Z,4.80
2018-11-29T00:11:27.427Z,4.82
2018-11-29T00:12:27.600Z,4.89
2018-11-29T00:13:27.772Z,4.90
2018-11-29T00:14:27.945Z,4.89
2018-11-29T00:15:28.122Z,4.92
2018-11-29T00:16:28.285Z,4.87
2018-11-29T00:17:28.453Z,4.87
2018-11-29T00:18:28.620Z,4.78
2018-11-29T00:19:28.792Z,4.66
2018-11-29T00:20:28.964Z,4.66
2018-11-29T00:21:29.132Z,4.71
2018-11-29T00:22:29.300Z,4.68
2018-11-29T00:23:29.478Z,4.74
2018-11-29T00:24:29.653Z,4.78
2018-11-29T00:25:29.820Z,4.63
2018-11-29T00:26:29.990Z,4.71
2018-11-29T00:27:30.163Z,4.70
2018-11-29T00:28:30.337Z,4.74
2018-11-29T00:29:30.510Z,4.67
2018-11-29T00:30:30.684Z,4.63
2018-11-29T00:31:30.850Z,4.66
2018-11-29T00:32:31.020Z,4.71
2018-11-29T00:33:31.194Z,4.78
2018-11-29T00:34:31.375Z,4.75
2018-11-29T00:35:31.537Z,4.86
2018-11-29T00:36:31.714Z,4.92
2018-11-29T00:37:31.886Z,4.94
2018-11-29T00:38:32.064Z,4.89
2018-11-29T00:39:32.227Z,4.87
2018-11-29T00:40:32.395Z,4.80
2018-11-29T00:41:32.579Z,4.74
2018-11-29T00:42:32.741Z,4.86
2018-11-29T00:43:32.921Z,4.80
2018-11-29T00:44:33.088Z,4.82
2018-11-29T00:45:33.256Z,4.68
2018-11-29T00:46:33.428Z,4.74
2018-11-29T00:47:33.601Z,4.66
2018-11-29T00:48:33.775Z,4.75
2018-11-29T00:49:33.943Z,4.66
2018-11-29T00:50:34.113Z,4.63
2018-11-29T00:51:34.287Z,4.60
2018-11-29T00:52:34.458Z,4.63
2018-11-29T00:53:34.633Z,4.62
2018-11-29T00:54:34.797Z,4.75
2018-11-29T00:55:34.969Z,4.74
2018-11-29T00:56:35.142Z,4.63
2018-11-29T00:57:35.312Z,4.66
2018-11-29T00:58:35.484Z,4.74
2018-11-29T00:59:35.651Z,4.71
2018-11-29T01:00:35.823Z,4.68
2018-11-29T01:01:35.994Z,4.67
2018-11-29T01:02:36.163Z,4.78
2018-11-29T01:03:36.338Z,4.70
2018-11-29T01:04:36.506Z,4.75
2018-11-29T01:05:36.692Z,4.74
2018-11-29T01:06:36.841Z,4.82
2018-11-29T01:07:37.012Z,4.82
2018-11-29T01:08:37.181Z,4.84
2018-11-29T01:09:37.357Z,4.87
2018-11-29T01:10:37.529Z,4.70
2018-11-29T01:12:37.861Z,4.73
2018-11-29T01:13:38.037Z,4.60
2018-11-29T01:14:38.206Z,4.59
2018-11-29T01:15:38.376Z,4.59
2018-11-29T01:16:38.549Z,4.60
2018-11-29T01:17:38.723Z,4.59
2018-11-29T01:18:38.892Z,4.60
2018-11-29T01:19:39.063Z,4.70
2018-11-29T01:20:39.232Z,4.62
2018-11-29T01:21:39.411Z,4.73
2018-11-29T01:22:39.574Z,4.70
2018-11-29T01:23:39.744Z,4.63
2018-11-29T01:24:39.919Z,4.66
2018-11-29T01:25:40.090Z,4.63
2018-11-29T01:26:40.262Z,4.71
2018-11-29T01:27:40.432Z,4.67
2018-11-29T01:28:40.604Z,4.53
2018-11-29T01:29:40.772Z,4.59
2018-11-29T01:30:40.943Z,4.59
2018-11-29T01:31:41.114Z,4.45
2018-11-29T01:32:41.291Z,4.53
2018-11-29T01:33:41.467Z,4.49
2018-11-29T01:34:41.638Z,4.63
2018-11-29T01:35:41.814Z,4.59
2018-11-29T01:36:41.975Z,4.53
2018-11-29T01:37:42.156Z,4.60
2018-11-29T01:38:42.325Z,4.55
2018-11-29T01:39:42.498Z,4.55
2018-11-29T01:40:42.662Z,4.52
2018-11-29T01:41:42.844Z,4.53
2018-11-29T01:42:43.008Z,4.53
2018-11-29T01:43:43.179Z,4.56
2018-11-29T01:44:43.356Z,4.56
2018-11-29T01:45:43.519Z,4.63
2018-11-29T01:46:43.687Z,4.56
2018-11-29T01:47:43.862Z,4.55
2018-11-29T01:48:44.033Z,4.62
2018-11-29T01:49:44.208Z,4.60
2018-11-29T01:50:44.379Z,4.63
2018-11-29T01:51:44.568Z,4.53
2018-11-29T01:52:44.742Z,4.52
2018-11-29T01:53:44.913Z,4.59
2018-11-29T01:54:45.086Z,4.67
2018-11-29T01:55:45.257Z,4.71
2018-11-29T01:56:45.428Z,4.52
2018-11-29T01:57:45.598Z,4.62
2018-11-29T01:58:45.779Z,4.48
2018-11-29T01:59:45.951Z,4.60
2018-11-29T02:00:46.115Z,4.45
2018-11-29T02:01:46.295Z,4.55
2018-11-29T02:02:46.456Z,4.48
2018-11-29T02:03:46.631Z,4.52
2018-11-29T02:04:46.800Z,4.49
2018-11-29T02:05:46.971Z,4.58
2018-11-29T02:06:47.142Z,4.59
2018-11-29T02:07:47.318Z,4.58
2018-11-29T02:08:47.486Z,4.56
2018-11-29T02:09:47.657Z,4.53
2018-11-29T02:10:47.827Z,4.49
2018-11-29T02:11:47.999Z,4.58
2018-11-29T02:12:48.171Z,4.53
2018-11-29T02:13:48.341Z,4.42
2018-11-29T02:14:48.514Z,4.32
2018-11-29T02:15:48.683Z,4.40
2018-11-29T02:16:48.853Z,4.32
2018-11-29T02:17:49.025Z,4.37
2018-11-29T02:18:49.196Z,4.40
2018-11-29T02:19:49.367Z,4.53
2018-11-29T02:20:49.539Z,4.49
2018-11-29T02:21:49.709Z,4.55
2018-11-29T02:22:49.885Z,4.60
2018-11-29T02:23:50.061Z,4.58
2018-11-29T02:24:50.227Z,4.63
2018-11-29T02:25:50.393Z,4.53
2018-11-29T02:26:50.566Z,4.56
2018-11-29T02:27:50.735Z,4.56
2018-11-29T02:28:50.906Z,4.68
2018-11-29T02:29:51.083Z,4.63
2018-11-29T02:30:51.260Z,4.73
2018-11-29T02:31:51.425Z,4.68
2018-11-29T02:32:51.598Z,4.68
2018-11-29T02:33:51.770Z,4.70
2018-11-29T02:34:51.940Z,4.70
2018-11-29T02:35:52.110Z,4.71
2018-11-29T02:36:52.291Z,4.73
2018-11-29T02:37:52.456Z,4.70
2018-11-29T02:38:52.624Z,4.70
2018-11-29T02:39:52.796Z,4.75
2018-11-29T02:40:52.969Z,4.75
2018-11-29T02:41:53.143Z,4.70
2018-11-29T02:42:53.309Z,4.68
2018-11-29T02:43:53.483Z,4.53
2018-11-29T02:44:53.653Z,4.52
2018-11-29T02:45:53.822Z,4.70
2018-11-29T02:46:53.999Z,4.66
2018-11-29T02:47:54.166Z,4.75
2018-11-29T02:48:54.335Z,4.70
2018-11-29T02:49:54.503Z,4.74
2018-11-29T02:50:54.674Z,4.75
2018-11-29T02:51:54.851Z,4.78
2018-11-29T02:52:55.020Z,4.87
2018-11-29T02:53:55.188Z,4.77
2018-11-29T02:54:55.361Z,4.87
2018-11-29T02:55:55.534Z,4.87
2018-11-29T02:56:55.709Z,4.84
2018-11-29T02:57:55.875Z,4.89
2018-11-29T02:58:56.046Z,4.94
2018-11-29T02:59:56.209Z,4.80
2018-11-29T03:00:56.387Z,4.90
2018-11-29T03:01:56.555Z,4.93
2018-11-29T03:02:56.730Z,4.94
2018-11-29T03:03:56.904Z,4.86
2018-11-29T03:04:57.073Z,4.73
2018-11-29T03:05:57.245Z,4.80
2018-11-29T03:06:57.416Z,4.70
2018-11-29T03:07:57.588Z,4.82
2018-11-29T03:08:57.756Z,4.90
2018-11-29T03:09:57.928Z,4.92
2018-11-29T03:10:58.101Z,4.96
2018-11-29T03:11:58.273Z,4.99
2018-11-29T03:12:58.449Z,5.07
2018-11-29T03:13:58.613Z,5.04
2018-11-29T03:14:58.782Z,4.94
2018-11-29T03:15:58.961Z,4.82
2018-11-29T03:16:59.128Z,4.89
2018-11-29T03:17:59.308Z,5.00
2018-11-29T03:18:59.473Z,5.12
2018-11-29T03:19:59.639Z,5.12
2018-11-29T03:20:59.864Z,5.15
2018-11-29T03:21:59.987Z,5.23
2018-11-29T03:23:00.164Z,5.18
2018-11-29T03:24:00.335Z,5.12
2018-11-29T03:25:00.501Z,5.00
2018-11-29T03:26:00.680Z,5.04
2018-11-29T03:27:00.841Z,4.90
2018-11-29T03:28:01.017Z,4.96
2018-11-29T03:29:01.186Z,4.84
2018-11-29T03:30:01.358Z,4.87
2018-11-29T03:31:01.534Z,4.82
2018-11-29T03:32:01.705Z,4.87
2018-11-29T03:33:01.885Z,4.80
2018-11-29T03:34:02.036Z,4.82
2018-11-29T03:35:02.210Z,4.84
2018-11-29T03:36:02.383Z,4.82
2018-11-29T03:37:02.550Z,4.93
2018-11-29T03:38:02.728Z,4.84
2018-11-29T03:39:02.896Z,4.89
2018-11-29T03:40:03.068Z,4.89
2018-11-29T03:41:03.243Z,4.82
2018-11-29T03:42:03.419Z,4.87
2018-11-29T03:43:03.583Z,4.87
2018-11-29T03:44:03.757Z,4.94
2018-11-29T03:45:03.927Z,4.63
2018-11-29T03:46:04.112Z,4.40
2018-11-29T03:47:04.268Z,4.30
2018-11-29T03:48:04.463Z,4.48
2018-11-29T03:49:04.613Z,4.35
2018-11-29T03:50:04.800Z,4.38
2018-11-29T03:51:04.958Z,4.50
2018-11-29T03:52:05.135Z,4.38
2018-11-29T03:53:05.301Z,4.42
2018-11-29T03:54:05.474Z,4.45
2018-11-29T03:55:05.644Z,4.53
2018-11-29T03:56:05.832Z,4.66
2018-11-29T03:57:05.991Z,4.45
2018-11-29T03:58:06.152Z,4.37
2018-11-29T03:59:06.321Z,4.41
2018-11-29T04:00:06.495Z,4.41
2018-11-29T04:01:06.680Z,4.50
2018-11-29T04:02:06.832Z,4.49
2018-11-29T04:03:07.013Z,4.53
2018-11-29T04:04:07.179Z,4.60
2018-11-29T04:05:07.351Z,4.63
2018-11-29T04:06:07.535Z,4.75
2018-11-29T04:07:07.691Z,4.67
2018-11-29T04:08:07.857Z,4.67
2018-11-29T04:09:08.031Z,4.86
2018-11-29T04:10:08.203Z,4.82
2018-11-29T04:11:08.936Z,4.84
2018-11-29T04:12:08.542Z,4.87
2018-11-29T04:13:08.735Z,4.96
2018-11-29T04:14:08.885Z,4.99
2018-11-29T04:15:09.056Z,5.12
2018-11-29T04:16:09.237Z,5.07
2018-11-29T04:17:09.397Z,5.15
2018-11-29T04:18:09.571Z,5.14
2018-11-29T04:19:09.739Z,5.23
2018-11-29T04:20:09.914Z,5.23
2018-11-29T04:21:10.091Z,5.29
2018-11-29T04:22:10.250Z,5.23
2018-11-29T04:23:10.425Z,5.25
2018-11-29T04:24:10.594Z,5.30
2018-11-29T04:25:10.769Z,5.23
2018-11-29T04:26:10.941Z,5.33
2018-11-29T04:27:11.109Z,5.36
2018-11-29T04:28:11.298Z,5.23
2018-11-29T04:29:11.453Z,5.21
2018-11-29T04:30:11.627Z,5.28
2018-11-29T04:31:11.802Z,5.17
2018-11-29T04:32:11.970Z,5.15
2018-11-29T04:33:12.144Z,5.17
2018-11-29T04:34:12.316Z,5.12
2018-11-29T04:35:12.492Z,5.17
2018-11-29T04:36:12.657Z,5.17
2018-11-29T04:37:12.839Z,5.18
2018-11-29T04:38:13.008Z,5.20
2018-11-29T04:39:13.179Z,5.17
2018-11-29T04:40:13.345Z,5.15
2018-11-29T04:41:13.523Z,5.12
2018-11-29T04:42:13.687Z,5.12
2018-11-29T04:43:13.859Z,5.14
2018-11-29T04:44:14.036Z,5.15
2018-11-29T04:45:14.205Z,5.02
2018-11-29T04:46:14.373Z,5.14
2018-11-29T04:47:14.545Z,5.04
2018-11-29T04:48:14.725Z,4.93
2018-11-29T04:49:14.890Z,4.82
2018-11-29T04:50:15.057Z,4.92
2018-11-29T04:51:15.231Z,4.94
2018-11-29T04:52:15.398Z,5.00
2018-11-29T04:53:15.572Z,4.90
2018-11-29T04:54:15.744Z,5.02
2018-11-29T04:55:15.923Z,4.99
2018-11-29T04:56:16.082Z,5.00
2018-11-29T04:57:16.261Z,5.00
2018-11-29T04:58:16.433Z,4.90
2018-11-29T04:59:16.596Z,4.90
2018-11-29T05:00:16.774Z,4.94
2018-11-29T05:01:16.947Z,4.78
2018-11-29T05:02:17.112Z,4.86
2018-11-29T05:03:17.277Z,4.94
2018-11-29T05:04:17.459Z,4.96
2018-11-29T05:05:17.625Z,4.96
2018-11-29T05:06:17.793Z,4.99
2018-11-29T05:07:17.957Z,5.04
2018-11-29T05:08:18.130Z,4.96
2018-11-29T05:09:18.325Z,4.96
2018-11-29T05:10:18.484Z,4.87
2018-11-29T05:11:18.644Z,4.93
2018-11-29T05:12:18.816Z,4.89
2018-11-29T05:13:18.983Z,4.90
2018-11-29T05:14:19.157Z,4.97
2018-11-29T05:15:19.322Z,4.96
2018-11-29T05:16:19.493Z,4.92
2018-11-29T05:17:19.666Z,5.07
2018-11-29T05:18:19.914Z,4.97
2018-11-29T05:19:20.023Z,4.90
2018-11-29T05:20:20.180Z,4.80
2018-11-29T05:21:20.351Z,4.71
2018-11-29T05:22:20.526Z,4.73
2018-11-29T05:23:20.697Z,4.77
2018-11-29T05:24:20.875Z,4.75
2018-11-29T05:25:21.040Z,4.75
2018-11-29T05:26:21.210Z,4.66
2018-11-29T05:27:21.377Z,4.59
2018-11-29T05:28:21.551Z,4.71
2018-11-29T05:29:21.728Z,4.62
2018-11-29T05:30:21.898Z,4.67
2018-11-29T05:31:22.063Z,4.74
2018-11-29T05:32:22.236Z,4.80
2018-11-29T05:33:22.410Z,4.82
2018-11-29T05:34:22.582Z,4.93
2018-11-29T05:35:22.755Z,4.86
2018-11-29T05:36:22.931Z,4.93
2018-11-29T05:37:23.105Z,4.99
2018-11-29T05:38:23.278Z,5.00
2018-11-29T05:39:23.444Z,4.92
2018-11-29T05:40:23.614Z,5.05
2018-11-29T05:41:23.788Z,4.97
2018-11-29T05:42:23.958Z,4.92
2018-11-29T05:43:24.131Z,5.15
2018-11-29T05:44:24.302Z,5.17
2018-11-29T05:45:24.476Z,5.18
2018-11-29T05:46:24.646Z,5.15
2018-11-29T05:47:24.831Z,5.26
2018-11-29T05:48:24.985Z,5.23
2018-11-29T05:49:25.158Z,5.17
2018-11-29T05:50:25.327Z,5.17
2018-11-29T05:51:25.500Z,5.21
2018-11-29T05:52:25.678Z,5.17
2018-11-29T05:53:25.847Z,5.23
2018-11-29T05:54:26.022Z,4.87
2018-11-29T05:55:26.194Z,4.97
2018-11-29T05:56:26.363Z,4.94
2018-11-29T05:57:26.538Z,4.93
2018-11-29T05:58:26.716Z,5.07
2018-11-29T05:59:26.881Z,5.07
2018-11-29T06:00:27.052Z,5.07
2018-11-29T06:01:27.221Z,5.04
2018-11-29T06:02:27.395Z,5.12
2018-11-29T06:03:27.565Z,5.12
2018-11-29T06:04:27.742Z,5.11
2018-11-29T06:05:27.913Z,5.05
2018-11-29T06:06:28.082Z,5.10
2018-11-29T06:07:28.258Z,5.02
2018-11-29T06:08:28.434Z,4.92
2018-11-29T06:09:28.601Z,5.07
2018-11-29T06:10:28.778Z,5.04
2018-11-29T06:11:28.948Z,4.96
2018-11-29T06:12:29.121Z,4.97
2018-11-29T06:13:29.290Z,4.96
2018-11-29T06:14:29.465Z,4.87
2018-11-29T06:15:29.632Z,4.90
2018-11-29T06:16:29.804Z,4.87
2018-11-29T06:17:29.976Z,4.80
2018-11-29T06:18:30.148Z,4.90
2018-11-29T06:19:30.320Z,4.86
2018-11-29T06:20:30.488Z,4.75
2018-11-29T06:21:30.661Z,4.80
2018-11-29T06:22:30.835Z,4.84
2018-11-29T06:23:31.025Z,4.87
2018-11-29T06:24:31.174Z,4.96
2018-11-29T06:25:31.406Z,4.94
2018-11-29T06:26:31.510Z,5.02
2018-11-29T06:27:31.682Z,4.96
2018-11-29T06:28:31.846Z,5.00
2018-11-29T06:29:32.029Z,5.02
2018-11-29T06:30:32.202Z,4.99
2018-11-29T06:31:32.374Z,5.10
2018-11-29T06:32:32.571Z,5.05
2018-11-29T06:33:32.723Z,5.07
2018-11-29T06:34:32.891Z,4.96
2018-11-29T06:35:33.072Z,4.92
2018-11-29T06:36:33.290Z,4.84
2018-11-29T06:37:33.421Z,4.78
2018-11-29T06:38:33.600Z,4.73
2018-11-29T06:39:34.726Z,4.80
2018-11-29T06:40:33.955Z,4.77
2018-11-29T06:41:34.117Z,4.89
2018-11-29T06:42:34.281Z,4.86
2018-11-29T06:43:34.445Z,4.87
2018-11-29T06:44:34.621Z,4.77
2018-11-29T06:45:34.796Z,4.66
2018-11-29T06:46:34.963Z,4.77
2018-11-29T06:47:35.146Z,4.73
2018-11-29T06:48:35.330Z,4.70
2018-11-29T06:49:35.471Z,4.63
2018-11-29T06:50:35.643Z,4.66
2018-11-29T06:51:35.817Z,4.67
2018-11-29T06:52:35.986Z,4.62
2018-11-29T06:53:36.158Z,4.53
2018-11-29T06:54:36.332Z,4.55
2018-11-29T06:55:36.497Z,4.49
2018-11-29T06:56:36.685Z,4.62
2018-11-29T06:57:36.869Z,4.67
2018-11-29T06:58:37.037Z,4.75
2018-11-29T06:59:37.212Z,4.86
2018-11-29T07:00:37.368Z,4.89
2018-11-29T07:01:37.552Z,5.04
2018-11-29T07:02:37.725Z,5.08
2018-11-29T07:03:37.893Z,5.14
2018-11-29T07:04:38.100Z,5.17
2018-11-29T07:05:38.215Z,5.14
2018-11-29T07:06:38.386Z,5.25
2018-11-29T07:07:38.554Z,5.30
2018-11-29T07:08:38.721Z,5.36
2018-11-29T07:09:38.910Z,5.39
2018-11-29T07:10:39.096Z,5.36
2018-11-29T07:11:39.289Z,5.41
2018-11-29T07:12:39.464Z,5.35
2018-11-29T07:13:39.620Z,5.43
2018-11-29T07:14:39.791Z,5.47
2018-11-29T07:15:40.006Z,5.39
2018-11-29T07:16:40.136Z,5.53
2018-11-29T07:17:40.307Z,5.57
2018-11-29T07:19:40.649Z,5.35
2018-11-29T07:20:40.815Z,5.43
2018-11-29T07:21:40.984Z,5.53
2018-11-29T07:22:41.158Z,5.47
2018-11-29T07:23:41.332Z,5.41
2018-11-29T07:24:41.500Z,5.38
2018-11-29T07:25:41.673Z,5.50
2018-11-29T07:26:41.847Z,5.44
2018-11-29T07:27:42.018Z,5.36
2018-11-29T07:28:42.198Z,5.44
2018-11-29T07:29:42.362Z,5.57
2018-11-29T07:30:42.543Z,5.43
2018-11-29T07:31:42.705Z,5.41
2018-11-29T07:32:42.885Z,5.53
2018-11-29T07:33:43.059Z,5.56
2018-11-29T07:34:43.218Z,5.65
2018-11-29T07:35:43.410Z,5.47
2018-11-29T07:36:43.570Z,5.53
2018-11-29T07:37:43.728Z,5.61
2018-11-29T07:38:43.904Z,5.61
2018-11-29T07:39:44.081Z,5.62
2018-11-29T07:40:44.253Z,5.68
2018-11-29T07:41:44.426Z,5.48
2018-11-29T07:42:44.628Z,5.54
2018-11-29T07:43:44.763Z,5.50
2018-11-29T07:44:44.928Z,5.69
2018-11-29T07:45:45.106Z,5.56
2018-11-29T07:46:45.272Z,5.54
2018-11-29T07:47:45.448Z,5.75
2018-11-29T07:48:45.618Z,5.69
2018-11-29T07:49:45.781Z,5.68
2018-11-29T07:50:45.958Z,5.75
2018-11-29T07:51:46.126Z,5.89
2018-11-29T07:52:46.304Z,5.53
2018-11-29T07:53:46.474Z,5.38
2018-11-29T07:54:46.646Z,5.18
2018-11-29T07:55:46.818Z,4.96
2018-11-29T07:56:46.991Z,4.90
2018-11-29T07:57:47.163Z,4.97
2018-11-29T07:58:51.576Z,5.14
2018-11-29T07:59:47.583Z,5.10
2018-11-29T08:00:47.685Z,5.08
2018-11-29T08:01:47.860Z,5.11
2018-11-29T08:02:48.026Z,5.23
2018-11-29T08:03:48.201Z,5.26
2018-11-29T08:04:48.367Z,5.44
2018-11-29T08:05:48.550Z,5.43
2018-11-29T08:06:48.715Z,5.59
2018-11-29T08:07:48.894Z,5.62
2018-11-29T08:08:49.061Z,5.69
2018-11-29T08:09:49.234Z,5.61
2018-11-29T08:10:49.403Z,5.71
2018-11-29T08:11:49.576Z,5.68
2018-11-29T08:12:49.746Z,5.71
2018-11-29T08:13:49.920Z,5.73
2018-11-29T08:14:50.092Z,5.80
2018-11-29T08:15:50.269Z,5.89
2018-11-29T08:16:50.445Z,5.82
2018-11-29T08:17:50.605Z,5.71
2018-11-29T08:18:50.781Z,5.76
2018-11-29T08:19:50.981Z,5.80
2018-11-29T08:20:51.123Z,5.87
2018-11-29T08:21:51.298Z,5.90
2018-11-29T08:22:51.464Z,5.94
2018-11-29T08:23:51.637Z,5.90
2018-11-29T08:24:51.811Z,5.86
2018-11-29T08:25:51.982Z,5.97
2018-11-29T08:26:52.156Z,6.04
2018-11-29T08:27:52.322Z,6.11
2018-11-29T08:28:52.491Z,5.94
2018-11-29T08:29:52.662Z,6.07
2018-11-29T08:30:52.876Z,5.99
2018-11-29T08:31:53.076Z,5.91
2018-11-29T08:32:53.226Z,5.76
2018-11-29T08:33:53.401Z,5.56
2018-11-29T08:34:53.576Z,5.46
2018-11-29T08:35:53.745Z,5.43
2018-11-29T08:36:53.906Z,5.21
2018-11-29T08:37:54.092Z,5.33
2018-11-29T08:38:54.253Z,5.26
2018-11-29T08:39:54.427Z,5.23
2018-11-29T08:40:54.621Z,5.21
2018-11-29T08:41:54.791Z,5.44
2018-11-29T08:42:54.940Z,5.50
2018-11-29T08:43:55.112Z,5.57
2018-11-29T08:44:55.286Z,5.54
2018-11-29T08:45:55.452Z,5.56
2018-11-29T08:46:55.626Z,5.72
2018-11-29T08:47:55.789Z,5.71
2018-11-29T08:48:55.969Z,5.79
2018-11-29T08:49:56.131Z,5.71
2018-11-29T08:50:56.303Z,5.64
2018-11-29T08:51:56.474Z,5.46
2018-11-29T08:52:56.638Z,5.54
2018-11-29T08:53:56.805Z,5.61
2018-11-29T08:54:56.980Z,5.56
2018-11-29T08:55:57.147Z,5.47
2018-11-29T08:56:57.295Z,5.38
2018-11-29T08:57:57.463Z,5.32
2018-11-29T08:58:57.633Z,5.36
2018-11-29T08:59:57.810Z,5.38
2018-11-29T09:00:57.982Z,5.26
2018-11-29T09:01:58.182Z,5.38
2018-11-29T09:02:58.330Z,5.36
2018-11-29T09:03:58.503Z,5.38
2018-11-29T09:04:58.673Z,5.43
2018-11-29T09:05:58.849Z,5.61
2018-11-29T09:06:59.021Z,5.59
2018-11-29T09:07:59.196Z,5.62
2018-11-29T09:08:59.365Z,5.61
2018-11-29T09:09:59.537Z,5.53
2018-11-29T09:10:59.711Z,5.64
2018-11-29T09:11:59.878Z,5.56
2018-11-29T09:13:00.055Z,5.76
2018-11-29T09:14:00.216Z,5.79
2018-11-29T09:15:00.404Z,5.98
2018-11-29T09:16:00.570Z,6.08
2018-11-29T09:17:00.745Z,5.84
2018-11-29T09:18:00.910Z,5.79
2018-11-29T09:19:01.086Z,5.69
2018-11-29T09:20:01.260Z,5.53
2018-11-29T09:21:01.437Z,5.54
2018-11-29T09:22:01.611Z,5.57
2018-11-29T09:23:01.780Z,5.76
2018-11-29T09:24:01.949Z,5.82
2018-11-29T09:25:02.123Z,5.86
2018-11-29T09:26:02.290Z,5.84
2018-11-29T09:27:02.466Z,5.66
2018-11-29T09:28:02.631Z,5.56
2018-11-29T09:29:02.819Z,5.39
2018-11-29T09:30:02.977Z,5.56
2018-11-29T09:31:03.147Z,5.54
2018-11-29T09:33:03.481Z,5.41
2018-11-29T09:34:03.653Z,5.62
2018-11-29T09:35:03.822Z,5.73
2018-11-29T09:36:04.016Z,5.62
2018-11-29T09:37:04.172Z,5.76
2018-11-29T09:38:04.348Z,5.54
2018-11-29T09:39:04.512Z,5.83
2018-11-29T09:40:04.681Z,5.90
2018-11-29T09:41:04.869Z,6.07
2018-11-29T09:42:05.037Z,6.12
2018-11-29T09:43:05.194Z,5.65
2018-11-29T09:44:05.367Z,5.68
2018-11-29T09:45:05.539Z,5.76
2018-11-29T09:46:05.712Z,5.73
2018-11-29T09:47:05.880Z,5.97
2018-11-29T09:48:06.051Z,6.17
2018-11-29T09:49:06.221Z,6.38
2018-11-29T09:50:06.396Z,6.77
2018-11-29T09:51:06.571Z,6.97
2018-11-29T09:52:06.750Z,7.07
2018-11-29T09:53:06.919Z,7.07
2018-11-29T09:54:07.081Z,7.02
2018-11-29T09:55:07.263Z,6.24
2018-11-29T09:56:07.442Z,6.16
2018-11-29T09:57:07.614Z,6.38
2018-11-29T09:58:07.788Z,6.33
2018-11-29T09:59:07.960Z,6.52
2018-11-29T10:00:08.131Z,7.07
2018-11-29T10:01:08.304Z,6.70
2018-11-29T10:02:08.586Z,6.42
2018-11-29T10:03:08.661Z,6.46
2018-11-29T10:04:08.820Z,6.57
2018-11-29T10:05:08.989Z,6.57
2018-11-29T10:06:09.175Z,6.59
2018-11-29T10:07:09.339Z,6.56
2018-11-29T10:08:12.019Z,6.44
2018-11-29T10:09:09.695Z,6.38
2018-11-29T10:10:09.857Z,6.36
2018-11-29T10:11:10.033Z,6.60
2018-11-29T10:12:10.211Z,6.51
2018-11-29T10:13:10.375Z,6.69
2018-11-29T10:14:10.561Z,6.46
2018-11-29T10:15:10.739Z,6.12
2018-11-29T10:16:10.894Z,6.54
2018-11-29T10:17:11.067Z,6.69
2018-11-29T10:18:11.240Z,6.78
2018-11-29T10:19:11.407Z,7.05
2018-11-29T10:20:11.589Z,7.24
2018-11-29T10:21:11.764Z,7.33
2018-11-29T10:22:11.971Z,7.36
2018-11-29T10:23:12.107Z,7.07
2018-11-29T10:24:12.286Z,6.82
2018-11-29T10:25:12.447Z,6.62
2018-11-29T10:26:12.626Z,6.54
2018-11-29T10:27:12.805Z,6.56
2018-11-29T10:28:12.975Z,6.48
2018-11-29T10:29:13.143Z,6.56
2018-11-29T10:30:13.319Z,6.56
2018-11-29T10:31:13.487Z,6.78
2018-11-29T10:32:13.669Z,6.64
2018-11-29T10:33:13.847Z,6.67
2018-11-29T10:34:14.013Z,6.56
2018-11-29T10:35:14.186Z,6.69
2018-11-29T10:36:14.360Z,6.51
2018-11-29T10:37:14.539Z,6.89
2018-11-29T10:38:14.713Z,7.00
2018-11-29T10:39:14.903Z,7.32
2018-11-29T10:40:15.089Z,7.29
2018-11-29T10:41:15.263Z,7.18
2018-11-29T10:42:15.432Z,7.45
2018-11-29T10:43:15.599Z,7.28
2018-11-29T10:44:15.782Z,7.38
2018-11-29T10:45:15.958Z,7.17
2018-11-29T10:46:16.144Z,7.50
2018-11-29T10:47:16.311Z,7.61
2018-11-29T10:48:16.488Z,7.73
2018-11-29T10:49:16.655Z,8.09
2018-11-29T10:50:16.839Z,8.12
2018-11-29T10:51:17.009Z,8.31
2018-11-29T10:52:17.195Z,7.97
2018-11-29T10:53:17.355Z,7.61
2018-11-29T10:54:17.540Z,7.38
2018-11-29T10:55:17.703Z,7.32
2018-11-29T10:56:17.878Z,7.60
2018-11-29T10:57:18.057Z,7.83
2018-11-29T10:58:18.240Z,8.16
2018-11-29T10:59:18.415Z,8.74
2018-11-29T11:00:18.589Z,9.21
2018-11-29T11:01:18.763Z,9.61
2018-11-29T11:02:18.945Z,9.98
2018-11-29T11:03:19.128Z,9.83
2018-11-29T11:04:19.294Z,9.73
2018-11-29T11:05:19.480Z,9.62
2018-11-29T11:06:19.653Z,9.64
2018-11-29T11:07:19.835Z,9.58
2018-11-29T11:08:20.002Z,9.51
2018-11-29T11:09:20.168Z,9.48
2018-11-29T11:10:20.337Z,9.43
2018-11-29T11:11:20.509Z,9.59
2018-11-29T11:12:20.700Z,9.72
2018-11-29T11:13:20.868Z,9.64
2018-11-29T11:14:21.016Z,9.21
2018-11-29T11:15:21.222Z,8.78
2018-11-29T11:16:21.388Z,8.38
2018-11-29T11:17:21.564Z,8.46
2018-11-29T11:18:21.738Z,8.56
2018-11-29T11:19:21.913Z,8.82
2018-11-29T11:20:22.097Z,8.87
2018-11-29T11:21:22.265Z,8.76
2018-11-29T11:22:22.438Z,9.02
2018-11-29T11:23:22.614Z,9.46
2018-11-29T11:26:23.146Z,8.81
2018-11-29T11:27:23.305Z,9.18
2018-11-29T11:28:23.497Z,9.37
2018-11-29T11:29:23.670Z,9.87
2018-11-29T11:30:23.835Z,9.87
2018-11-29T11:31:30.842Z,9.76
2018-11-29T11:32:24.189Z,9.91
2018-11-29T11:33:24.374Z,8.92
2018-11-29T11:34:24.542Z,9.16
2018-11-29T11:35:24.757Z,8.95
2018-11-29T11:36:24.908Z,8.55
2018-11-29T11:37:25.090Z,8.41
2018-11-29T11:38:25.265Z,8.30
2018-11-29T11:39:25.477Z,8.28
2018-11-29T11:40:25.661Z,8.45
2018-11-29T11:41:25.795Z,8.41
2018-11-29T11:42:25.961Z,8.60
2018-11-29T11:43:26.145Z,8.69
2018-11-29T11:44:26.317Z,8.87
2018-11-29T11:45:26.485Z,9.03
2018-11-29T11:46:26.663Z,9.29
2018-11-29T11:47:26.834Z,9.31
2018-11-29T11:48:27.000Z,8.53
2018-11-29T11:49:27.174Z,8.27
2018-11-29T11:50:27.347Z,8.42
2018-11-29T11:51:27.539Z,8.63
2018-11-29T11:52:27.712Z,8.67
2018-11-29T11:53:27.883Z,8.87
2018-11-29T11:54:28.060Z,8.78
2018-11-29T11:55:30.315Z,8.61
2018-11-29T11:56:28.504Z,8.58
2018-11-29T11:57:28.578Z,8.64
2018-11-29T11:58:28.767Z,8.61
2018-11-29T11:59:28.925Z,8.26
2018-11-29T12:00:29.103Z,8.03
2018-11-29T12:01:29.278Z,8.03
2018-11-29T12:02:29.453Z,7.67
2018-11-29T12:03:29.635Z,7.69
2018-11-29T12:04:29.803Z,7.88
2018-11-29T12:05:29.977Z,7.98
2018-11-29T12:06:30.176Z,8.13
2018-11-29T12:07:30.327Z,8.03
2018-11-29T12:08:30.499Z,7.98
2018-11-29T12:09:30.680Z,7.82
2018-11-29T12:10:30.844Z,7.83
2018-11-29T12:11:31.255Z,7.82
2018-11-29T12:12:31.181Z,7.70
2018-11-29T12:13:31.354Z,7.75
2018-11-29T12:14:31.527Z,7.88
2018-11-29T12:15:31.693Z,7.93
2018-11-29T12:16:31.870Z,8.12
2018-11-29T12:17:32.041Z,8.24
2018-11-29T12:18:32.219Z,8.30
2018-11-29T12:19:32.392Z,8.36
2018-11-29T12:20:32.568Z,8.38
2018-11-29T12:21:32.731Z,8.52
2018-11-29T12:22:32.925Z,8.56
2018-11-29T12:23:33.250Z,8.41
2018-11-29T12:24:33.254Z,8.58
2018-11-29T12:25:33.416Z,8.46
2018-11-29T12:26:33.614Z,8.49
2018-11-29T12:27:33.783Z,8.52
2018-11-29T12:28:33.938Z,8.48
2018-11-29T12:29:34.120Z,8.60
2018-11-29T12:30:34.284Z,8.38
2018-11-29T12:31:34.459Z,8.51
2018-11-29T12:32:34.642Z,8.28
2018-11-29T12:33:34.815Z,8.45
2018-11-29T12:34:34.986Z,8.33
2018-11-29T12:35:35.165Z,8.44
2018-11-29T12:36:35.350Z,8.28
2018-11-29T12:37:35.522Z,8.27
2018-11-29T12:38:35.699Z,8.26
2018-11-29T12:39:35.880Z,8.24
2018-11-29T12:40:36.049Z,8.18
2018-11-29T12:41:36.221Z,7.93
2018-11-29T12:42:36.399Z,7.85
2018-11-29T12:43:36.569Z,7.91
2018-11-29T12:44:36.744Z,7.97
2018-11-29T12:45:36.915Z,7.90
2018-11-29T12:46:37.088Z,8.03
2018-11-29T12:47:37.262Z,8.15
2018-11-29T12:48:37.436Z,8.26
2018-11-29T12:49:37.615Z,8.28
2018-11-29T12:50:37.787Z,8.23
2018-11-29T12:51:37.961Z,8.26
2018-11-29T12:52:38.224Z,8.31
2018-11-29T12:53:38.296Z,8.42
2018-11-29T12:54:38.476Z,8.55
2018-11-29T12:55:38.646Z,8.56
2018-11-29T12:56:38.823Z,8.60
2018-11-29T12:57:38.995Z,8.58
2018-11-29T12:58:39.176Z,8.52
2018-11-29T12:59:39.365Z,8.63
2018-11-29T13:00:39.518Z,8.63
2018-11-29T13:01:39.694Z,8.49
2018-11-29T13:02:40.828Z,8.26
2018-11-29T13:03:40.042Z,8.15
2018-11-29T13:04:40.215Z,8.12
2018-11-29T13:05:40.396Z,8.03
2018-11-29T13:06:40.566Z,8.05
2018-11-29T13:07:43.296Z,8.09
2018-11-29T13:08:40.936Z,8.18
2018-11-29T13:09:41.638Z,8.27
2018-11-29T13:10:41.228Z,8.45
2018-11-29T13:11:41.403Z,8.38
2018-11-29T13:12:41.587Z,8.46
2018-11-29T13:13:41.750Z,8.66
2018-11-29T13:14:42.265Z,8.70
2018-11-29T13:15:42.052Z,8.63
2018-11-29T13:16:42.225Z,8.66
2018-11-29T13:17:42.420Z,8.81
2018-11-29T13:18:42.581Z,8.87
2018-11-29T13:19:42.741Z,8.81
2018-11-29T13:20:42.920Z,8.64
2018-11-29T13:21:43.096Z,8.56
2018-11-29T13:22:43.265Z,8.60
2018-11-29T13:23:43.430Z,8.52
2018-11-29T13:24:43.607Z,8.67
2018-11-29T13:25:43.805Z,8.67